Mindoro — SVAS8 — position and weather

sailwx.info

Track history (hours):
 
Tides and Currents Weather Stations Pressure Air Temp Water Temp Dewpoint Dewpoint Depression Visibility Wind Speed Wind Dir Waves Ship Positions

Mindoro

Last reported at 2016-May-05 23:24 UTC. Time now 2016-May-05 23:51 UTC.
Position N 59°56' E 028°37'.

Length 245 m; draft 8.7 m.

Type: Ship (hazmat cat B). MMSI: 240924000.

Date/timePositionNaut miles runAvg speedWind from/ knotsBaromVisibWave heightAir tempDewpointWater temp
2016-May-05 23:24N 59°56' E 028°37'0 0.0
2016-May-05 22:24N 59°56' E 028°37'0 0.0
2016-May-05 21:27N 59°56' E 028°37'0 0.1
2016-May-05 20:27N 59°56' E 028°37'0 0.2
2016-May-05 19:31N 59°56' E 028°36'6 5.9
2016-May-05 18:33N 60°01' E 028°33'1414.5
2016-May-05 17:33N 60°08' E 028°08'1514.8
2016-May-05 16:33N 60°08' E 027°38'1615.9
2016-May-05 15:33N 59°60' E 027°11'1515.2
2016-May-05 14:33N 59°59' E 026°40'1616.0
2016-May-05 13:33N 59°55' E 026°10'1915.9
2016-May-05 12:21N 59°50' E 025°32'5015.8
2016-May-05 09:11N 59°38' E 023°56'1016.3
2016-May-05 08:33N 59°34' E 023°37'1616.1
2016-May-05 07:33N 59°30' E 023°07'1616.0
2016-May-05 06:32N 59°25' E 022°36'1616.1
2016-May-05 05:33N 59°15' E 022°12'21615.5
2016-May-04 15:33N 56°12' E 018°35'1515.2
2016-May-04 14:33N 56°04' E 018°12'1515.4
2016-May-04 13:33N 55°57' E 017°48'1515.2
2016-May-04 12:33N 55°52' E 017°22'1615.2
2016-May-04 11:31N 55°48' E 016°55'4515.3
2016-May-04 08:33N 55°37' E 015°37'1515.3
2016-May-04 07:33N 55°31' E 015°12'1515.4
2016-May-04 06:34N 55°25' E 014°47'1515.2
2016-May-04 05:34N 55°15' E 014°27'1414.3
2016-May-04 04:34N 55°10' E 014°04'1515.4
2016-May-04 03:34N 55°11' E 013°37'1615.4
2016-May-04 02:33N 55°12' E 013°10'1515.3
2016-May-04 01:33N 55°16' E 012°44'1313.0
2016-May-04 00:33N 55°29' E 012°41'1010.3
2016-May-03 23:33N 55°40' E 012°41'1514.8
2016-May-03 22:34N 55°54' E 012°39'1313.3
2016-May-03 21:33N 56°07' E 012°31'1413.6
2016-May-03 20:33N 56°14' E 012°10'1414.0
2016-May-03 19:33N 56°26' E 011°59'1615.7
2016-May-03 18:33N 56°42' E 011°53'1616.4
2016-May-03 17:33N 56°57' E 011°44'1616.2
2016-May-03 16:34N 57°13' E 011°34'1716.6
2016-May-03 15:34N 57°28' E 011°24'1616.4
2016-May-03 14:34N 57°44' E 011°16'1616.0
2016-May-03 13:33N 57°60' E 011°10'1413.5
2016-May-03 12:33N 58°13' E 011°12'9 9.3
2016-May-03 11:33N 58°20' E 011°24'1 0.2
2016-May-03 07:15N 58°21' E 011°24'0 0.0
2016-May-03 06:27N 58°21' E 011°24'0 0.0
2016-May-03 02:27N 58°21' E 011°24'0 0.0
2016-May-02 08:06N 58°21' E 011°24'0 0.0
2016-May-02 07:33N 58°21' E 011°24'0 0.0
2016-May-02 06:33N 58°21' E 011°24'2 1.5
2016-May-02 05:33N 58°20' E 011°23'9 8.6
2016-May-02 04:33N 58°14' E 011°10'9 9.3
2016-May-02 03:34N 58°05' E 011°04'1110.9
2016-May-02 02:33N 57°55' E 010°59'10 9.8
2016-May-02 01:33N 57°46' E 010°51'1010.5
2016-May-02 00:33N 57°39' E 011°05'1010.1
2016-May-01 23:33N 57°32' E 011°19'10 9.9
2016-May-01 22:33N 57°24' E 011°29'10 9.8
2016-May-01 21:33N 57°15' E 011°36'1010.3
2016-May-01 20:33N 57°05' E 011°41'1010.2
2016-May-01 19:33N 56°55' E 011°47'1010.1
2016-May-01 18:33N 56°45' E 011°53'10 9.9
2016-May-01 17:33N 56°37' E 011°45'1010.0
2016-May-01 16:33N 56°28' E 011°36'7310.5
2016-May-01 09:32N 55°17' E 011°04'1110.6
2016-May-01 08:33N 55°07' E 010°59'1111.4
2016-May-01 07:34N 54°56' E 010°53'1312.6
2016-May-01 06:33N 54°44' E 010°47'1111.1
2016-May-01 05:33N 54°36' E 011°01'1313.0
2016-May-01 04:34N 54°33' E 011°22'1313.1
2016-May-01 03:33N 54°28' E 011°43'1211.9
2016-May-01 02:34N 54°26' E 012°03'8 7.8
2016-May-01 01:33N 54°31' E 012°14'8 8.4
2016-May-01 00:33N 54°38' E 012°22'41 9.7
2016-Apr-30 20:19N 54°56' E 013°26'1013.1
2016-Apr-30 19:33N 55°00' E 013°42'1313.1
2016-Apr-30 18:33N 55°06' E 014°03'1313.2
2016-Apr-30 17:33N 55°11' E 014°24'1312.5
2016-Apr-30 16:33N 55°18' E 014°42'8 7.7
2016-Apr-30 15:34N 55°20' E 014°55'1110.6
2016-Apr-30 14:34N 55°29' E 015°05'1111.4
2016-Apr-30 13:34N 55°38' E 015°17'1211.9
2016-Apr-30 12:33N 55°42' E 015°38'4912.3
2016-Apr-30 08:32N 55°54' E 017°03'2512.5
2016-Apr-30 06:33N 56°00' E 017°46'2512.5
2016-Apr-30 04:33N 56°14' E 018°23'25512.1
2016-Apr-29 07:33N 59°37' E 023°13'1212.5
2016-Apr-29 06:33N 59°40' E 023°37'1312.6
2016-Apr-29 05:32N 59°44' E 024°02'7512.6
2016-Apr-28 23:33N 60°01' E 026°28'1212.2
2016-Apr-28 22:33N 60°00' E 026°52'1811.9
2016-Apr-28 21:03N 60°07' E 027°26'812.3
2016-Apr-28 20:24N 60°11' E 027°40'1112.0
2016-Apr-28 19:28N 60°10' E 028°02'1112.1
2016-Apr-28 18:33N 60°08' E 028°24'1111.1
2016-Apr-28 17:33N 60°12' E 028°44'8 7.5
2016-Apr-28 16:32N 60°19' E 028°43'1 0.0
2016-Apr-27 07:03N 60°20' E 028°43'0 0.0
2016-Apr-27 06:33N 60°20' E 028°43'10 4.9
2016-Apr-27 04:33N 60°10' E 028°43'9 9.2
2016-Apr-27 03:33N 60°02' E 028°32'3 2.6
2016-Apr-27 02:26N 60°02' E 028°27'0 0.0
2016-Apr-27 01:26N 60°02' E 028°27'0 0.0
2016-Apr-27 00:23N 60°02' E 028°27'0 0.0
2016-Apr-26 23:29N 60°02' E 028°27'0 0.0
2016-Apr-26 22:29N 60°02' E 028°27'0 0.0
2016-Apr-26 21:32N 60°02' E 028°27'0 0.0
2016-Apr-26 20:32N 60°02' E 028°27'0 0.0
2016-Apr-26 19:32N 60°02' E 028°27'0 0.0
2016-Apr-26 18:32N 60°02' E 028°27'0 0.0
2016-Apr-26 17:32N 60°02' E 028°27'0 0.0
2016-Apr-26 16:32N 60°02' E 028°27'2 2.3
2016-Apr-26 15:33N 60°04' E 028°24'9 9.0
2016-Apr-26 14:34N 60°08' E 028°09'9 9.3
2016-Apr-26 13:33N 60°11' E 027°51'9 8.8
2016-Apr-26 12:34N 60°07' E 027°34'10 9.5
2016-Apr-26 11:28N 60°02' E 027°17'9 9.1
2016-Apr-26 10:27N 59°58' E 027°00'9 9.5
2016-Apr-26 09:34N 59°59' E 026°43'9 9.4
2016-Apr-26 08:33N 59°57' E 026°25'75 8.9
2016-Apr-26 00:11N 59°39' E 024°01'6 9.2
2016-Apr-25 23:34N 59°38' E 023°50'  
Track history (hours):
 
Tides and Currents Weather Stations Pressure Air Temp Water Temp Dewpoint Dewpoint Depression Visibility Wind Speed Wind Dir Waves Ship Positions

Mindoro

Last reported at 2016-May-05 23:24 UTC. Time now 2016-May-05 23:51 UTC.
Position N 59°56' E 028°37'.

Length 245 m; draft 8.7 m.

Type: Ship (hazmat cat B). MMSI: 240924000.

Date/timePositionNaut miles runAvg speedWind from/ knotsBaromVisibWave heightAir tempDewpointWater temp
2016-May-05 23:24N 59°56' E 028°37'0 0.0
2016-May-05 22:24N 59°56' E 028°37'0 0.0
2016-May-05 21:27N 59°56' E 028°37'0 0.1
2016-May-05 20:27N 59°56' E 028°37'0 0.2
2016-May-05 19:31N 59°56' E 028°36'6 5.9
2016-May-05 18:33N 60°01' E 028°33'1414.5
2016-May-05 17:33N 60°08' E 028°08'1514.8
2016-May-05 16:33N 60°08' E 027°38'1615.9
2016-May-05 15:33N 59°60' E 027°11'1515.2
2016-May-05 14:33N 59°59' E 026°40'1616.0
2016-May-05 13:33N 59°55' E 026°10'1915.9
2016-May-05 12:21N 59°50' E 025°32'5015.8
2016-May-05 09:11N 59°38' E 023°56'1016.3
2016-May-05 08:33N 59°34' E 023°37'1616.1
2016-May-05 07:33N 59°30' E 023°07'1616.0
2016-May-05 06:32N 59°25' E 022°36'1616.1
2016-May-05 05:33N 59°15' E 022°12'21615.5
2016-May-04 15:33N 56°12' E 018°35'1515.2
2016-May-04 14:33N 56°04' E 018°12'1515.4
2016-May-04 13:33N 55°57' E 017°48'1515.2
2016-May-04 12:33N 55°52' E 017°22'1615.2
2016-May-04 11:31N 55°48' E 016°55'4515.3
2016-May-04 08:33N 55°37' E 015°37'1515.3
2016-May-04 07:33N 55°31' E 015°12'1515.4
2016-May-04 06:34N 55°25' E 014°47'1515.2
2016-May-04 05:34N 55°15' E 014°27'1414.3
2016-May-04 04:34N 55°10' E 014°04'1515.4
2016-May-04 03:34N 55°11' E 013°37'1615.4
2016-May-04 02:33N 55°12' E 013°10'1515.3
2016-May-04 01:33N 55°16' E 012°44'1313.0
2016-May-04 00:33N 55°29' E 012°41'1010.3
2016-May-03 23:33N 55°40' E 012°41'1514.8
2016-May-03 22:34N 55°54' E 012°39'1313.3
2016-May-03 21:33N 56°07' E 012°31'1413.6
2016-May-03 20:33N 56°14' E 012°10'1414.0
2016-May-03 19:33N 56°26' E 011°59'1615.7
2016-May-03 18:33N 56°42' E 011°53'1616.4
2016-May-03 17:33N 56°57' E 011°44'1616.2
2016-May-03 16:34N 57°13' E 011°34'1716.6
2016-May-03 15:34N 57°28' E 011°24'1616.4
2016-May-03 14:34N 57°44' E 011°16'1616.0
2016-May-03 13:33N 57°60' E 011°10'1413.5
2016-May-03 12:33N 58°13' E 011°12'9 9.3
2016-May-03 11:33N 58°20' E 011°24'1 0.2
2016-May-03 07:15N 58°21' E 011°24'0 0.0
2016-May-03 06:27N 58°21' E 011°24'0 0.0
2016-May-03 02:27N 58°21' E 011°24'0 0.0
2016-May-02 08:06N 58°21' E 011°24'0 0.0
2016-May-02 07:33N 58°21' E 011°24'0 0.0
2016-May-02 06:33N 58°21' E 011°24'2 1.5
2016-May-02 05:33N 58°20' E 011°23'9 8.6
2016-May-02 04:33N 58°14' E 011°10'9 9.3
2016-May-02 03:34N 58°05' E 011°04'1110.9
2016-May-02 02:33N 57°55' E 010°59'10 9.8
2016-May-02 01:33N 57°46' E 010°51'1010.5
2016-May-02 00:33N 57°39' E 011°05'1010.1
2016-May-01 23:33N 57°32' E 011°19'10 9.9
2016-May-01 22:33N 57°24' E 011°29'10 9.8
2016-May-01 21:33N 57°15' E 011°36'1010.3
2016-May-01 20:33N 57°05' E 011°41'1010.2
2016-May-01 19:33N 56°55' E 011°47'1010.1
2016-May-01 18:33N 56°45' E 011°53'10 9.9
2016-May-01 17:33N 56°37' E 011°45'1010.0
2016-May-01 16:33N 56°28' E 011°36'7310.5
2016-May-01 09:32N 55°17' E 011°04'1110.6
2016-May-01 08:33N 55°07' E 010°59'1111.4
2016-May-01 07:34N 54°56' E 010°53'1312.6
2016-May-01 06:33N 54°44' E 010°47'1111.1
2016-May-01 05:33N 54°36' E 011°01'1313.0
2016-May-01 04:34N 54°33' E 011°22'1313.1
2016-May-01 03:33N 54°28' E 011°43'1211.9
2016-May-01 02:34N 54°26' E 012°03'8 7.8
2016-May-01 01:33N 54°31' E 012°14'8 8.4
2016-May-01 00:33N 54°38' E 012°22'41 9.7
2016-Apr-30 20:19N 54°56' E 013°26'1013.1
2016-Apr-30 19:33N 55°00' E 013°42'1313.1
2016-Apr-30 18:33N 55°06' E 014°03'1313.2
2016-Apr-30 17:33N 55°11' E 014°24'1312.5
2016-Apr-30 16:33N 55°18' E 014°42'8 7.7
2016-Apr-30 15:34N 55°20' E 014°55'1110.6
2016-Apr-30 14:34N 55°29' E 015°05'1111.4
2016-Apr-30 13:34N 55°38' E 015°17'1211.9
2016-Apr-30 12:33N 55°42' E 015°38'4912.3
2016-Apr-30 08:32N 55°54' E 017°03'2512.5
2016-Apr-30 06:33N 56°00' E 017°46'2512.5
2016-Apr-30 04:33N 56°14' E 018°23'25512.1
2016-Apr-29 07:33N 59°37' E 023°13'1212.5
2016-Apr-29 06:33N 59°40' E 023°37'1312.6
2016-Apr-29 05:32N 59°44' E 024°02'7512.6
2016-Apr-28 23:33N 60°01' E 026°28'1212.2
2016-Apr-28 22:33N 60°00' E 026°52'1811.9
2016-Apr-28 21:03N 60°07' E 027°26'812.3
2016-Apr-28 20:24N 60°11' E 027°40'1112.0
2016-Apr-28 19:28N 60°10' E 028°02'1112.1
2016-Apr-28 18:33N 60°08' E 028°24'1111.1
2016-Apr-28 17:33N 60°12' E 028°44'8 7.5
2016-Apr-28 16:32N 60°19' E 028°43'1 0.0
2016-Apr-27 07:03N 60°20' E 028°43'0 0.0
2016-Apr-27 06:33N 60°20' E 028°43'10 4.9
2016-Apr-27 04:33N 60°10' E 028°43'9 9.2
2016-Apr-27 03:33N 60°02' E 028°32'3 2.6
2016-Apr-27 02:26N 60°02' E 028°27'0 0.0
2016-Apr-27 01:26N 60°02' E 028°27'0 0.0
2016-Apr-27 00:23N 60°02' E 028°27'0 0.0
2016-Apr-26 23:29N 60°02' E 028°27'0 0.0
2016-Apr-26 22:29N 60°02' E 028°27'0 0.0
2016-Apr-26 21:32N 60°02' E 028°27'0 0.0
2016-Apr-26 20:32N 60°02' E 028°27'0 0.0
2016-Apr-26 19:32N 60°02' E 028°27'0 0.0
2016-Apr-26 18:32N 60°02' E 028°27'0 0.0
2016-Apr-26 17:32N 60°02' E 028°27'0 0.0
2016-Apr-26 16:32N 60°02' E 028°27'2 2.3
2016-Apr-26 15:33N 60°04' E 028°24'9 9.0
2016-Apr-26 14:34N 60°08' E 028°09'9 9.3
2016-Apr-26 13:33N 60°11' E 027°51'9 8.8
2016-Apr-26 12:34N 60°07' E 027°34'10 9.5
2016-Apr-26 11:28N 60°02' E 027°17'9 9.1
2016-Apr-26 10:27N 59°58' E 027°00'9 9.5
2016-Apr-26 09:34N 59°59' E 026°43'9 9.4
2016-Apr-26 08:33N 59°57' E 026°25'75 8.9
2016-Apr-26 00:11N 59°39' E 024°01'6 9.2
2016-Apr-25 23:34N 59°38' E 023°50'  

Dump ship's entire track history